createdAt,value
2022-09-23T00:02:15.698Z,1.30
2022-09-23T00:04:44.040Z,1.50
2022-09-23T00:07:13.726Z,1.70
2022-09-23T00:09:41.958Z,1.50
2022-09-23T00:12:10.488Z,1.60
2022-09-23T00:14:40.001Z,1.50
2022-09-23T00:17:08.358Z,1.38
2022-09-23T00:19:39.318Z,1.63
2022-09-23T00:22:08.900Z,1.92
2022-09-23T00:24:38.580Z,1.92
2022-09-23T00:27:07.056Z,1.50
2022-09-23T00:29:36.966Z,1.55
2022-09-23T00:32:05.772Z,1.50
2022-09-23T00:34:34.027Z,1.30
2022-09-23T00:37:02.233Z,1.60
2022-09-23T00:39:30.744Z,1.42
2022-09-23T00:42:00.338Z,1.45
2022-09-23T00:44:50.743Z,1.50
2022-09-23T00:47:23.846Z,1.43
2022-09-23T00:50:00.255Z,1.40
2022-09-23T00:52:28.971Z,1.55
2022-09-23T00:54:59.853Z,1.50
2022-09-23T00:57:30.678Z,1.60
2022-09-23T00:59:59.192Z,1.50
2022-09-23T01:02:28.406Z,1.60
2022-09-23T01:04:56.897Z,1.80
2022-09-23T01:07:25.266Z,1.55
2022-09-23T01:09:53.519Z,1.50
2022-09-23T01:12:49.935Z,1.77
2022-09-23T01:15:23.954Z,2.25
2022-09-23T01:18:02.655Z,1.80
2022-09-23T01:20:58.041Z,1.60
2022-09-23T01:24:15.750Z,1.58
2022-09-23T01:27:01.509Z,1.50
2022-09-23T01:30:13.709Z,1.67
2022-09-23T01:33:04.658Z,1.70
2022-09-23T01:35:47.651Z,1.60
2022-09-23T01:38:31.630Z,1.77
2022-09-23T01:41:15.419Z,1.60
2022-09-23T01:43:54.552Z,1.60
2022-09-23T01:46:28.338Z,1.90
2022-09-23T01:49:07.777Z,1.30
2022-09-23T01:51:41.792Z,1.52
2022-09-23T01:54:17.052Z,1.50
2022-09-23T01:56:52.422Z,1.70
2022-09-23T01:59:26.725Z,1.50
2022-09-23T02:02:01.053Z,1.45
2022-09-23T02:04:36.703Z,1.70
2022-09-23T02:07:11.252Z,1.92
2022-09-23T02:09:45.058Z,1.52
2022-09-23T02:12:18.424Z,1.50
2022-09-23T02:14:53.158Z,1.90
2022-09-23T02:17:29.531Z,1.55
2022-09-23T02:20:03.656Z,1.85
2022-09-23T02:22:38.387Z,2.00
2022-09-23T02:25:09.011Z,1.75
2022-09-23T02:27:47.391Z,1.77
2022-09-23T02:30:22.603Z,1.60
2022-09-23T02:32:55.950Z,1.73
2022-09-23T02:35:33.228Z,1.40
2022-09-23T02:38:14.551Z,1.58
2022-09-23T02:43:25.553Z,1.60
2022-09-23T02:45:53.839Z,1.70
2022-09-23T02:48:27.597Z,1.70
2022-09-23T02:50:57.273Z,1.85
2022-09-23T02:53:26.430Z,1.75
2022-09-23T02:55:54.665Z,2.03
2022-09-23T02:58:23.094Z,2.03
2022-09-23T03:01:06.119Z,1.98
2022-09-23T03:03:45.851Z,1.92
2022-09-23T03:06:29.166Z,1.80
2022-09-23T03:09:04.531Z,1.85
2022-09-23T03:11:35.386Z,1.60
2022-09-23T03:14:17.653Z,1.67
2022-09-23T03:16:54.128Z,1.60
2022-09-23T03:19:30.203Z,1.60
2022-09-23T03:22:07.524Z,1.80
2022-09-23T03:24:38.224Z,1.80
2022-09-23T03:27:14.011Z,1.85
2022-09-23T03:29:47.383Z,1.55
2022-09-23T03:32:18.483Z,2.10
2022-09-23T03:39:56.465Z,1.73
2022-09-23T03:42:28.125Z,1.60
2022-09-23T03:44:58.337Z,1.90
2022-09-23T03:47:28.977Z,1.43
2022-09-23T03:49:57.794Z,1.80
2022-09-23T03:52:27.671Z,1.88
2022-09-23T03:54:56.034Z,1.80
2022-09-23T03:57:26.077Z,1.70
2022-09-23T03:59:54.706Z,1.75
2022-09-23T04:02:22.997Z,1.55
2022-09-23T04:04:51.456Z,1.70
2022-09-23T04:07:20.084Z,1.92
2022-09-23T04:09:49.731Z,2.03
2022-09-23T04:12:18.535Z,1.90
2022-09-23T04:14:47.070Z,1.77
2022-09-23T04:17:15.847Z,1.80
2022-09-23T04:19:45.093Z,2.10
2022-09-23T04:22:13.445Z,2.10
2022-09-23T04:24:41.747Z,1.60
2022-09-23T04:27:11.343Z,1.92
2022-09-23T04:29:39.646Z,1.85
2022-09-23T04:32:07.915Z,1.75
2022-09-23T04:34:36.166Z,1.55
2022-09-23T04:37:05.962Z,1.60
2022-09-23T04:39:34.273Z,2.15
2022-09-23T04:42:04.112Z,1.70
2022-09-23T04:44:34.903Z,1.75
2022-09-23T04:47:04.344Z,1.77
2022-09-23T04:49:33.714Z,2.10
2022-09-23T04:52:02.819Z,2.05
2022-09-23T04:54:31.155Z,1.73
2022-09-23T04:56:59.448Z,1.63
2022-09-23T04:59:27.710Z,1.83
2022-09-23T05:01:57.431Z,2.03
2022-09-23T05:04:25.677Z,1.63
2022-09-23T05:06:53.923Z,2.17
2022-09-23T05:09:22.128Z,1.60
2022-09-23T05:11:50.380Z,1.50
2022-09-23T05:14:18.652Z,2.00
2022-09-23T05:16:46.856Z,1.60
2022-09-23T05:19:16.456Z,1.80
2022-09-23T05:21:44.703Z,1.58
2022-09-23T05:24:14.269Z,1.90
2022-09-23T05:26:43.047Z,1.70
2022-09-23T05:29:11.449Z,2.00
2022-09-23T05:31:39.732Z,1.98
2022-09-23T05:34:08.220Z,2.03
2022-09-23T05:36:41.634Z,1.77
2022-09-23T05:39:09.929Z,2.05
2022-09-23T05:41:40.329Z,2.05
2022-09-23T05:44:08.541Z,1.73
2022-09-23T05:46:37.917Z,2.20
2022-09-23T05:49:07.361Z,2.05
2022-09-23T05:51:39.328Z,1.98
2022-09-23T05:54:08.380Z,2.20
2022-09-23T05:56:38.263Z,2.03
2022-09-23T05:59:07.718Z,2.25
2022-09-23T06:01:38.654Z,1.80
2022-09-23T06:04:09.232Z,2.00
2022-09-23T06:06:41.504Z,2.08
2022-09-23T06:09:14.522Z,2.05
2022-09-23T06:11:43.288Z,1.83
2022-09-23T06:14:14.682Z,1.95
2022-09-23T06:16:43.187Z,1.75
2022-09-23T06:19:11.506Z,1.80
2022-09-23T06:21:41.717Z,2.25
2022-09-23T06:24:16.628Z,2.13
2022-09-23T06:26:47.249Z,2.20
2022-09-23T06:29:15.632Z,1.50
2022-09-23T06:31:44.019Z,1.83
2022-09-23T06:34:14.841Z,1.95
2022-09-23T06:36:46.579Z,1.50
2022-09-23T06:39:16.050Z,1.60
2022-09-23T06:41:44.748Z,1.92
2022-09-23T06:44:13.110Z,1.50
2022-09-23T06:46:41.436Z,1.80
2022-09-23T06:49:12.994Z,1.60
2022-09-23T06:51:41.450Z,1.52
2022-09-23T06:54:11.483Z,1.92
2022-09-23T06:56:40.125Z,2.05
2022-09-23T06:59:13.021Z,1.60
2022-09-23T07:01:41.500Z,1.67
2022-09-23T07:04:10.710Z,1.77
2022-09-23T07:06:38.986Z,1.75
2022-09-23T07:09:08.842Z,1.73
2022-09-23T07:11:39.509Z,1.73
2022-09-23T07:14:07.967Z,1.90
2022-09-23T07:16:36.353Z,1.77
2022-09-23T07:19:04.713Z,1.88
2022-09-23T07:21:33.261Z,1.77
2022-09-23T07:24:01.728Z,1.52
2022-09-23T07:26:31.052Z,1.60
2022-09-23T07:29:05.153Z,1.67
2022-09-23T07:31:39.157Z,1.90
2022-09-23T07:34:11.379Z,1.58
2022-09-23T07:36:41.602Z,1.60
2022-09-23T07:39:12.765Z,1.67
2022-09-23T07:44:12.304Z,1.63
2022-09-23T07:46:41.117Z,1.45
2022-09-23T07:49:10.607Z,1.92
2022-09-23T07:51:41.031Z,1.73
2022-09-23T07:54:15.902Z,1.38
2022-09-23T07:56:45.194Z,1.75
2022-09-23T07:59:18.346Z,1.60
2022-09-23T08:01:49.336Z,2.00
2022-09-23T08:04:20.329Z,1.52
2022-09-23T08:06:51.327Z,1.27
2022-09-23T08:09:22.261Z,1.80
2022-09-23T08:11:51.609Z,1.73
2022-09-23T08:14:22.391Z,1.70
2022-09-23T08:16:52.231Z,1.67
2022-09-23T08:19:20.750Z,1.70
2022-09-23T08:21:49.205Z,1.63
2022-09-23T08:24:20.124Z,1.60
2022-09-23T08:26:49.593Z,1.95
2022-09-23T08:29:22.088Z,1.40
2022-09-23T08:31:50.920Z,1.35
2022-09-23T08:34:20.270Z,1.38
2022-09-23T08:36:48.948Z,1.50
2022-09-23T08:39:18.986Z,1.45
2022-09-23T08:42:03.418Z,1.20
2022-09-23T08:44:47.740Z,1.52
2022-09-23T08:47:24.761Z,1.38
2022-09-23T08:50:02.346Z,1.08
2022-09-23T08:52:36.771Z,1.30
2022-09-23T08:55:10.661Z,1.23
2022-09-23T08:58:02.308Z,1.45
2022-09-23T09:00:42.750Z,1.20
2022-09-23T09:03:23.906Z,1.60
2022-09-23T09:08:27.952Z,1.42
2022-09-23T09:10:58.208Z,2.00
2022-09-23T09:13:33.525Z,1.77
2022-09-23T09:16:36.347Z,1.40
2022-09-23T09:19:17.153Z,1.40
2022-09-23T09:21:48.942Z,1.50
2022-09-23T09:24:29.640Z,1.52
2022-09-23T09:26:58.141Z,1.55
2022-09-23T09:29:36.154Z,1.80
2022-09-23T09:32:19.707Z,1.60
2022-09-23T09:34:55.484Z,1.55
2022-09-23T09:37:32.990Z,1.60
2022-09-23T09:40:02.114Z,1.75
2022-09-23T09:42:40.373Z,1.95
2022-09-23T09:45:20.189Z,1.40
2022-09-23T09:48:03.007Z,1.70
2022-09-23T09:50:47.202Z,1.55
2022-09-23T09:53:25.674Z,1.50
2022-09-23T09:56:05.651Z,1.38
2022-09-23T09:58:41.692Z,1.70
2022-09-23T10:01:10.420Z,1.80
2022-09-23T10:03:44.398Z,1.88
2022-09-23T10:06:21.009Z,1.23
2022-09-23T10:09:05.766Z,1.65
2022-09-23T10:11:34.572Z,1.70
2022-09-23T10:14:11.015Z,1.83
2022-09-23T10:16:40.221Z,1.30
2022-09-23T10:19:24.430Z,1.52
2022-09-23T10:21:56.994Z,1.55
2022-09-23T10:24:29.857Z,2.47
2022-09-23T10:27:02.153Z,1.67
2022-09-23T10:29:38.593Z,1.88
2022-09-23T10:32:28.146Z,1.67
2022-09-23T10:35:03.443Z,1.70
2022-09-23T10:37:39.321Z,1.83
2022-09-23T10:40:38.790Z,1.67
2022-09-23T10:43:47.095Z,1.77
2022-09-23T10:46:38.531Z,1.88
2022-09-23T10:49:29.112Z,1.75
2022-09-23T10:52:17.495Z,1.77
2022-09-23T10:55:01.081Z,1.40
2022-09-23T10:57:45.732Z,1.33
2022-09-23T11:00:23.651Z,1.42
2022-09-23T11:03:30.307Z,1.45
2022-09-23T11:06:14.594Z,1.50
2022-09-23T11:09:11.279Z,2.03
2022-09-23T11:11:54.298Z,1.38
2022-09-23T11:14:42.114Z,1.45
2022-09-23T11:17:32.187Z,1.60
2022-09-23T11:20:42.899Z,1.30
2022-09-23T11:23:38.135Z,1.50
2022-09-23T11:26:22.152Z,1.35
2022-09-23T11:29:51.673Z,1.40
2022-09-23T11:33:07.538Z,1.15
2022-09-23T11:35:42.861Z,1.25
2022-09-23T11:38:18.753Z,1.25
2022-09-23T11:40:54.710Z,1.20
2022-09-23T11:43:28.782Z,1.27
2022-09-23T11:46:03.782Z,1.10
2022-09-23T11:48:37.991Z,1.02
2022-09-23T11:51:12.974Z,0.95
2022-09-23T11:53:48.154Z,1.10
2022-09-23T11:56:34.989Z,0.80
2022-09-23T11:59:13.927Z,1.00
2022-09-23T12:01:48.410Z,0.70
2022-09-23T12:04:26.478Z,0.63
2022-09-23T12:07:02.267Z,1.02
2022-09-23T12:09:57.618Z,0.90
2022-09-23T12:12:35.948Z,0.80
2022-09-23T12:15:14.500Z,0.73
2022-09-23T12:18:27.540Z,0.80
2022-09-23T12:21:32.795Z,0.70
2022-09-23T12:24:28.685Z,0.77
2022-09-23T12:27:03.015Z,0.63
2022-09-23T12:29:33.144Z,0.30
2022-09-23T12:32:05.504Z,0.50
2022-09-23T12:34:48.790Z,0.50
2022-09-23T12:37:28.098Z,0.38
2022-09-23T12:40:03.521Z,0.68
2022-09-23T12:42:31.954Z,0.50
2022-09-23T12:45:39.285Z,0.60
2022-09-23T12:48:45.453Z,0.70
2022-09-23T12:51:23.171Z,0.40
2022-09-23T12:54:00.641Z,0.50
2022-09-23T12:56:58.923Z,0.45
2022-09-23T12:59:30.800Z,0.75
2022-09-23T13:02:21.885Z,0.80
2022-09-23T13:07:48.664Z,0.65
2022-09-23T13:10:23.830Z,0.85
2022-09-23T13:12:54.058Z,1.00
2022-09-23T13:15:30.442Z,0.90
2022-09-23T13:18:58.709Z,0.50
2022-09-23T13:22:09.285Z,0.35
2022-09-23T13:24:49.471Z,0.60
2022-09-23T13:27:23.320Z,0.40
2022-09-23T13:29:59.264Z,0.77
2022-09-23T13:32:33.196Z,0.70
2022-09-23T13:35:05.049Z,0.50
2022-09-23T13:37:44.971Z,6.38
2022-09-23T13:40:24.882Z,4.10
2022-09-23T13:42:58.537Z,2.40
2022-09-23T13:45:28.452Z,1.05
2022-09-23T13:48:03.130Z,1.60
2022-09-23T13:50:34.899Z,0.88
2022-09-23T13:53:10.158Z,0.50
2022-09-23T13:55:41.351Z,0.75
2022-09-23T13:58:19.853Z,0.63
2022-09-23T14:00:49.735Z,0.73
2022-09-23T14:03:36.242Z,0.82
2022-09-23T14:06:10.882Z,0.70
2022-09-23T14:08:45.852Z,0.63
2022-09-23T14:11:17.644Z,0.80
2022-09-23T14:13:47.882Z,0.90
2022-09-23T14:16:18.183Z,1.10
2022-09-23T14:18:49.592Z,0.73
2022-09-23T14:21:30.043Z,0.70
2022-09-23T14:24:16.416Z,0.70
2022-09-23T14:26:48.088Z,7.72
2022-09-23T14:29:19.755Z,1.75
2022-09-23T14:31:58.150Z,0.70
2022-09-23T14:34:48.864Z,0.68
2022-09-23T14:37:47.095Z,0.65
2022-09-23T14:40:19.585Z,0.80
2022-09-23T14:42:52.151Z,0.60
2022-09-23T14:45:24.010Z,0.73
2022-09-23T14:47:58.536Z,0.80
2022-09-23T14:50:47.352Z,0.80
2022-09-23T14:53:40.398Z,0.88
2022-09-23T14:56:19.925Z,0.70
2022-09-23T14:58:53.283Z,0.73
2022-09-23T15:01:39.788Z,3.63
2022-09-23T15:04:18.391Z,1.30
2022-09-23T15:06:54.747Z,1.90
2022-09-23T15:09:26.884Z,1.25
2022-09-23T15:11:59.052Z,0.60
2022-09-23T15:14:38.212Z,0.55
2022-09-23T15:17:22.254Z,0.75
2022-09-23T15:19:55.231Z,0.63
2022-09-23T15:22:25.221Z,0.50
2022-09-23T15:24:54.746Z,0.50
2022-09-23T15:27:35.265Z,0.80
2022-09-23T15:30:15.996Z,0.80
2022-09-23T15:32:45.123Z,1.00
2022-09-23T15:35:15.809Z,0.85
2022-09-23T15:37:45.021Z,0.57
2022-09-23T15:40:22.672Z,0.80
2022-09-23T15:42:56.176Z,0.50
2022-09-23T15:45:33.213Z,0.85
2022-09-23T15:48:08.117Z,2.63
2022-09-23T15:50:37.415Z,0.85
2022-09-23T15:53:06.732Z,1.00
2022-09-23T15:55:35.071Z,0.80
2022-09-23T15:58:04.743Z,0.73
2022-09-23T16:00:34.228Z,1.17
2022-09-23T16:03:02.605Z,1.10
2022-09-23T16:05:36.167Z,1.40
2022-09-23T16:08:08.969Z,0.85
2022-09-23T16:10:38.501Z,0.60
2022-09-23T16:13:11.744Z,0.85
2022-09-23T16:15:40.887Z,0.82
2022-09-23T16:18:11.531Z,1.00
2022-09-23T16:20:44.547Z,1.50
2022-09-23T16:23:35.610Z,0.75
2022-09-23T16:26:07.627Z,1.20
2022-09-23T16:28:37.856Z,0.70
2022-09-23T16:31:06.763Z,1.10
2022-09-23T16:33:35.235Z,1.00
2022-09-23T16:36:04.074Z,1.00
2022-09-23T16:38:32.907Z,1.15
2022-09-23T16:41:01.426Z,0.88
2022-09-23T16:43:39.444Z,1.20
2022-09-23T16:46:10.166Z,0.95
2022-09-23T16:48:40.497Z,9.60
2022-09-23T16:51:09.389Z,3.67
2022-09-23T16:53:39.269Z,7.80
2022-09-23T16:56:09.611Z,3.00
2022-09-23T16:58:38.524Z,1.80
2022-09-23T17:01:28.277Z,1.38
2022-09-23T17:03:56.660Z,1.38
2022-09-23T17:06:27.830Z,1.40
2022-09-23T17:08:56.255Z,1.27
2022-09-23T17:11:24.647Z,1.02
2022-09-23T17:13:52.974Z,1.15
2022-09-23T17:16:28.410Z,1.20
2022-09-23T17:18:57.354Z,1.13
2022-09-23T17:21:27.794Z,1.25
2022-09-23T17:23:57.747Z,1.17
2022-09-23T17:26:28.231Z,1.25
2022-09-23T17:28:58.869Z,1.20
2022-09-23T17:31:28.678Z,1.38
2022-09-23T17:33:57.319Z,1.80
2022-09-23T17:36:25.674Z,1.95
2022-09-23T17:38:54.389Z,1.45
2022-09-23T17:41:23.187Z,1.60
2022-09-23T17:43:56.696Z,1.65
2022-09-23T17:46:25.003Z,1.92
2022-09-23T17:48:55.568Z,2.03
2022-09-23T17:51:25.497Z,1.80
2022-09-23T17:53:53.904Z,1.80
2022-09-23T17:56:25.035Z,1.83
2022-09-23T17:58:54.611Z,1.80
2022-09-23T18:01:25.806Z,1.65
2022-09-23T18:03:58.699Z,1.85
2022-09-23T18:06:31.575Z,2.08
2022-09-23T18:09:03.954Z,2.72
2022-09-23T18:11:35.169Z,1.92
2022-09-23T18:14:06.620Z,1.60
2022-09-23T18:16:38.216Z,1.40
2022-09-23T18:19:11.505Z,1.10
2022-09-23T18:21:42.070Z,1.48
2022-09-23T18:24:31.202Z,1.77
2022-09-23T18:26:59.736Z,1.42
2022-09-23T18:29:28.770Z,1.20
2022-09-23T18:31:57.232Z,1.02
2022-09-23T18:34:26.956Z,1.35
2022-09-23T18:36:56.231Z,1.52
2022-09-23T18:39:24.675Z,1.55
2022-09-23T18:41:52.995Z,1.75
2022-09-23T18:44:21.302Z,1.60
2022-09-23T18:46:49.621Z,1.60
2022-09-23T18:49:35.441Z,1.83
2022-09-23T18:52:05.291Z,1.58
2022-09-23T18:54:33.554Z,1.70
2022-09-23T18:57:01.908Z,2.85
2022-09-23T18:59:33.508Z,3.47
2022-09-23T19:02:02.078Z,3.28
2022-09-23T19:04:30.391Z,2.10
2022-09-23T19:06:58.944Z,1.60
2022-09-23T19:09:28.674Z,1.65
2022-09-23T19:11:57.730Z,1.90
2022-09-23T19:14:26.519Z,1.85
2022-09-23T19:16:54.794Z,1.70
2022-09-23T19:19:23.087Z,1.52
2022-09-23T19:21:51.342Z,2.00
2022-09-23T19:24:21.037Z,1.88
2022-09-23T19:26:50.835Z,1.88
2022-09-23T19:29:21.842Z,1.90
2022-09-23T19:31:51.094Z,1.98
2022-09-23T19:34:23.813Z,1.67
2022-09-23T19:36:52.794Z,1.80
2022-09-23T19:39:23.368Z,1.60
2022-09-23T19:41:54.485Z,2.03
2022-09-23T19:46:56.461Z,1.83
2022-09-23T19:49:26.315Z,1.77
2022-09-23T19:51:56.552Z,1.90
2022-09-23T19:54:27.427Z,1.70
2022-09-23T19:59:26.446Z,1.42
2022-09-23T20:01:55.565Z,2.10
2022-09-23T20:04:23.992Z,2.00
2022-09-23T20:06:52.285Z,8.35
2022-09-23T20:09:20.825Z,9.15
2022-09-23T20:11:49.720Z,4.95
2022-09-23T20:14:20.185Z,3.03
2022-09-23T20:16:48.436Z,2.53
2022-09-23T20:19:16.812Z,2.85
2022-09-23T20:21:45.132Z,2.58
2022-09-23T20:24:13.688Z,2.63
2022-09-23T20:26:59.382Z,2.47
2022-09-23T20:29:29.020Z,2.40
2022-09-23T20:31:59.341Z,2.13
2022-09-23T20:34:29.720Z,2.58
2022-09-23T20:36:59.240Z,1.75
2022-09-23T20:39:27.969Z,2.22
2022-09-23T20:41:56.268Z,1.98
2022-09-23T20:44:25.134Z,2.22
2022-09-23T20:46:54.782Z,2.17
2022-09-23T20:49:23.161Z,2.55
2022-09-23T20:51:51.910Z,4.63
2022-09-23T20:54:20.102Z,11.80
2022-09-23T20:56:48.908Z,3.58
2022-09-23T20:59:17.985Z,2.85
2022-09-23T21:01:47.612Z,3.60
2022-09-23T21:04:17.894Z,3.30
2022-09-23T21:06:46.550Z,3.60
2022-09-23T21:09:14.860Z,3.45
2022-09-23T21:11:43.172Z,3.33
2022-09-23T21:14:11.703Z,3.80
2022-09-23T21:16:40.164Z,3.80
2022-09-23T21:19:08.722Z,4.10
2022-09-23T21:21:39.165Z,3.83
2022-09-23T21:24:38.773Z,3.92
2022-09-23T21:26:56.064Z,3.90
2022-09-23T21:29:24.456Z,4.05
2022-09-23T21:31:52.771Z,4.07
2022-09-23T21:34:21.134Z,3.97
2022-09-23T21:36:50.877Z,4.13
2022-09-23T21:39:19.494Z,3.92
2022-09-23T21:41:47.821Z,3.60
2022-09-23T21:44:16.450Z,3.47
2022-09-23T21:46:44.796Z,4.28
2022-09-23T21:49:13.293Z,3.83
2022-09-23T21:51:42.475Z,3.95
2022-09-23T21:54:16.903Z,3.72
2022-09-23T21:56:45.809Z,4.72
2022-09-23T21:59:14.227Z,3.78
2022-09-23T22:01:45.058Z,4.18
2022-09-23T22:06:44.984Z,4.03
2022-09-23T22:09:17.563Z,4.07
2022-09-23T22:12:03.427Z,4.40
2022-09-23T22:14:32.268Z,4.13
2022-09-23T22:17:03.796Z,4.22
2022-09-23T22:19:35.354Z,3.83
2022-09-23T22:22:08.039Z,4.45
2022-09-23T22:24:37.783Z,4.38
2022-09-23T22:27:07.900Z,4.28
2022-09-23T22:29:53.454Z,3.95
2022-09-23T22:32:39.471Z,4.15
2022-09-23T22:35:09.031Z,4.57
2022-09-23T22:37:38.125Z,4.78
2022-09-23T22:40:14.217Z,4.75
2022-09-23T22:42:43.345Z,4.20
2022-09-23T22:45:13.287Z,4.28
2022-09-23T22:47:45.342Z,3.97
2022-09-23T22:50:15.210Z,4.20
2022-09-23T22:52:43.888Z,4.15
2022-09-23T22:55:14.074Z,4.55
2022-09-23T22:57:42.455Z,4.27
2022-09-23T23:00:13.165Z,4.40
2022-09-23T23:02:42.511Z,4.65
2022-09-23T23:05:11.116Z,4.28
2022-09-23T23:07:39.393Z,4.40
2022-09-23T23:10:10.460Z,4.28
2022-09-23T23:12:41.683Z,4.28
2022-09-23T23:17:43.629Z,5.03
2022-09-23T23:20:12.096Z,5.35
2022-09-23T23:22:40.366Z,4.85
2022-09-23T23:25:09.699Z,4.13
2022-09-23T23:27:39.304Z,4.25
2022-09-23T23:30:09.680Z,3.90
2022-09-23T23:32:37.969Z,4.60
2022-09-23T23:35:07.502Z,4.72
2022-09-23T23:37:35.797Z,4.95
2022-09-23T23:40:04.279Z,5.18
2022-09-23T23:42:32.915Z,5.25
2022-09-23T23:45:02.690Z,4.75
2022-09-23T23:47:30.959Z,4.75
2022-09-23T23:49:59.404Z,4.72
2022-09-23T23:52:27.573Z,4.82
2022-09-23T23:54:56.283Z,4.60
2022-09-23T23:57:24.522Z,5.72
2022-09-23T23:59:52.782Z,4.60
